Time;durP1;ratioP1;P1;durP2;ratioP2;P2;SDS_P1;SDS_P2;PMS_P1;PMS_P2;Temp;Humidity;BMP_temperature;BMP_pressure;BME280_temperature;BME280_humidity;BME280_pressure;Samples;Min_cycle;Max_cycle;Signal;HPM_P1;HPM_P2
2023/07/16 00:01:38;;;;;;;30.05;24.13;;;21.90;99.90;;;;;;5075062;28;20029;-63
2023/07/16 00:04:04;;;;;;;29.13;23.50;;;21.80;99.90;;;;;;5057148;28;20485;-63
2023/07/16 00:06:29;;;;;;;33.03;24.88;;;21.90;99.90;;;;;;5057363;28;20032;-63
2023/07/16 00:08:55;;;;;;;31.48;24.08;;;21.80;99.90;;;;;;5075426;28;20032;-64
2023/07/16 00:11:21;;;;;;;27.80;24.02;;;21.80;99.90;;;;;;5075064;28;20024;-63
2023/07/16 00:13:48;;;;;;;29.50;24.60;;;21.80;99.90;;;;;;5056944;28;20051;-63
2023/07/16 00:16:15;;;;;;;29.00;23.42;;;21.80;99.90;;;;;;5075176;28;20090;-63
2023/07/16 00:18:47;;;;;;;31.00;25.27;;;21.80;99.90;;;;;;5075046;28;20024;-64
2023/07/16 00:21:13;;;;;;;28.48;23.77;;;21.80;99.90;;;;;;5074870;28;20025;-63
2023/07/16 00:23:39;;;;;;;31.77;24.90;;;21.80;99.90;;;;;;5057017;28;20470;-64
2023/07/16 00:26:05;;;;;;;30.42;23.33;;;21.70;99.90;;;;;;5074961;28;20036;-64
2023/07/16 00:28:31;;;;;;;26.67;23.65;;;21.70;99.90;;;;;;5074809;28;20474;-64
2023/07/16 00:30:57;;;;;;;27.92;23.33;;;21.70;99.90;;;;;;5074928;28;20099;-64
2023/07/16 00:33:23;;;;;;;30.15;22.92;;;21.70;99.90;;;;;;5074660;28;20119;-63
2023/07/16 00:35:50;;;;;;;28.63;24.00;;;21.70;99.90;;;;;;5056799;28;20033;-64
2023/07/16 00:38:19;;;;;;;29.27;23.20;;;21.80;99.90;;;;;;5056944;28;20028;-64
2023/07/16 00:40:49;;;;;;;28.73;24.40;;;21.80;99.90;;;;;;5074710;28;20466;-64
2023/07/16 00:43:15;;;;;;;31.55;24.90;;;21.70;99.90;;;;;;5073965;28;20547;-64
2023/07/16 00:45:44;;;;;;;26.25;22.83;;;21.60;99.90;;;;;;5074675;28;20104;-64
2023/07/16 00:48:11;;;;;;;28.60;23.23;;;21.60;99.90;;;;;;5040186;28;20056;-63
2023/07/16 00:50:39;;;;;;;28.92;23.95;;;21.60;99.90;;;;;;5056564;28;20296;-64
2023/07/16 00:53:10;;;;;;;28.98;22.33;;;21.50;99.90;;;;;;5056397;28;20032;-64
2023/07/16 00:55:36;;;;;;;32.05;24.15;;;21.60;99.90;;;;;;5049408;28;20033;-63
2023/07/16 00:58:05;;;;;;;30.67;23.40;;;21.50;99.90;;;;;;5054441;28;20621;-64
2023/07/16 01:00:41;;;;;;;32.90;22.75;;;21.50;99.90;;;;;;5054342;28;20024;-63
2023/07/16 01:03:10;;;;;;;29.13;24.23;;;21.40;99.90;;;;;;5054440;28;20025;-64
2023/07/16 01:06:02;;;;;;;34.67;25.83;;;21.40;99.90;;;;;;5054396;28;20033;-64
2023/07/16 01:08:35;;;;;;;35.63;27.25;;;21.40;99.90;;;;;;5036468;28;20517;-63
2023/07/16 01:11:01;;;;;;;29.40;26.10;;;21.40;99.90;;;;;;5054185;28;20087;-64
2023/07/16 01:13:28;;;;;;;31.70;25.50;;;21.40;99.90;;;;;;5054204;28;20383;-63
2023/07/16 01:15:55;;;;;;;30.25;24.50;;;21.30;99.90;;;;;;5036478;28;20524;-63
2023/07/16 01:18:21;;;;;;;30.60;25.30;;;21.30;99.90;;;;;;5036411;28;20028;-64
2023/07/16 01:20:47;;;;;;;29.45;24.92;;;21.30;99.90;;;;;;5054165;28;20028;-63
2023/07/16 01:23:42;;;;;;;31.70;25.02;;;21.30;99.90;;;;;;5054299;28;20044;-64
2023/07/16 01:26:26;;;;;;;31.13;24.10;;;21.30;99.90;;;;;;5003563;28;20136;-64
2023/07/16 01:29:13;;;;;;;30.80;23.98;;;21.30;99.90;;;;;;5036293;28;20112;-64
2023/07/16 01:31:40;;;;;;;30.13;25.08;;;21.30;99.90;;;;;;5019836;28;20132;-64
2023/07/16 01:34:06;;;;;;;30.45;24.42;;;21.40;99.90;;;;;;5054097;28;20068;-64
2023/07/16 01:36:34;;;;;;;30.38;24.35;;;21.30;99.90;;;;;;5054026;28;20487;-64
2023/07/16 01:39:01;;;;;;;29.63;24.98;;;21.30;99.90;;;;;;5036322;28;20025;-64
2023/07/16 01:41:27;;;;;;;33.13;25.67;;;21.20;99.90;;;;;;5054092;28;20380;-64
2023/07/16 01:43:53;;;;;;;30.35;25.13;;;21.20;99.90;;;;;;5036223;28;20375;-64
2023/07/16 01:46:19;;;;;;;29.15;24.58;;;21.20;99.90;;;;;;5054109;28;20247;-64
2023/07/16 01:48:45;;;;;;;28.60;24.83;;;21.20;99.90;;;;;;5053862;28;20036;-64
2023/07/16 01:51:13;;;;;;;33.30;24.77;;;21.20;99.90;;;;;;5054035;28;20428;-64
2023/07/16 01:53:41;;;;;;;31.88;25.45;;;21.20;99.90;;;;;;5054817;28;20127;-64
2023/07/16 01:56:07;;;;;;;30.17;24.70;;;21.20;99.90;;;;;;5050910;28;20044;-64
2023/07/16 01:58:33;;;;;;;29.30;23.42;;;21.20;99.90;;;;;;5059656;28;20045;-64
2023/07/16 02:00:59;;;;;;;32.33;25.23;;;21.10;99.90;;;;;;5077706;28;20081;-64
2023/07/16 02:03:25;;;;;;;29.10;23.58;;;21.10;99.90;;;;;;5077671;28;20406;-64
2023/07/16 02:05:51;;;;;;;28.05;24.27;;;21.10;99.90;;;;;;5059540;28;20028;-64
2023/07/16 02:08:18;;;;;;;27.13;23.70;;;21.10;99.90;;;;;;5077465;28;20025;-64
2023/07/16 02:10:44;;;;;;;29.58;24.25;;;21.10;99.90;;;;;;5059385;28;20048;-65
2023/07/16 02:13:11;;;;;;;28.63;24.02;;;21.10;99.90;;;;;;5059609;28;20025;-64
2023/07/16 02:15:37;;;;;;;29.48;24.60;;;21.00;99.90;;;;;;5059119;28;20059;-64
2023/07/16 02:18:04;;;;;;;29.00;23.60;;;21.00;99.90;;;;;;5059352;28;20475;-64
2023/07/16 02:20:30;;;;;;;30.77;24.83;;;21.00;99.90;;;;;;5059293;28;20033;-64
2023/07/16 02:22:56;;;;;;;28.15;22.60;;;20.90;99.90;;;;;;5059426;28;20048;-64
2023/07/16 02:25:22;;;;;;;26.70;23.55;;;21.00;99.90;;;;;;5059170;28;20498;-64
2023/07/16 02:27:48;;;;;;;28.30;24.52;;;20.90;99.90;;;;;;5059340;28;20021;-64
2023/07/16 02:30:17;;;;;;;28.75;24.58;;;20.90;99.90;;;;;;5077038;28;20027;-64
2023/07/16 02:32:44;;;;;;;27.25;23.73;;;20.90;99.90;;;;;;5076889;28;20024;-64
2023/07/16 02:35:10;;;;;;;28.23;24.25;;;20.90;99.90;;;;;;5059255;28;20032;-64
2023/07/16 02:37:36;;;;;;;29.02;24.15;;;20.90;99.90;;;;;;5059034;28;20025;-64
2023/07/16 02:40:03;;;;;;;29.98;25.20;;;20.90;99.90;;;;;;5076817;28;20074;-64
2023/07/16 02:42:29;;;;;;;30.20;25.98;;;20.90;99.90;;;;;;5076985;28;20100;-64
2023/07/16 02:44:55;;;;;;;29.25;24.50;;;20.90;99.90;;;;;;5076812;28;20043;-64
2023/07/16 02:47:21;;;;;;;29.77;24.92;;;20.90;99.90;;;;;;5076719;28;20025;-64
2023/07/16 02:49:53;;;;;;;32.30;24.58;;;20.90;99.90;;;;;;5076744;28;20047;-64
2023/07/16 02:52:19;;;;;;;29.13;24.40;;;20.80;99.90;;;;;;5058759;28;20044;-64
2023/07/16 02:54:45;;;;;;;32.55;25.15;;;20.80;99.90;;;;;;5058664;28;20416;-64
2023/07/16 02:57:10;;;;;;;28.25;24.48;;;20.80;99.90;;;;;;5038726;28;20102;-64
2023/07/16 02:59:37;;;;;;;29.40;24.40;;;20.80;99.90;;;;;;5056398;28;20058;-64
2023/07/16 03:02:03;;;;;;;33.08;24.73;;;20.80;99.90;;;;;;5038691;28;20060;-64
2023/07/16 03:04:29;;;;;;;31.92;24.02;;;20.70;99.90;;;;;;5038988;28;20056;-64
2023/07/16 03:06:55;;;;;;;37.85;25.60;;;20.70;99.90;;;;;;5037903;28;20033;-64
2023/07/16 03:09:22;;;;;;;34.45;25.90;;;20.80;99.90;;;;;;5056298;28;20029;-64
2023/07/16 03:11:48;;;;;;;32.30;24.48;;;20.80;99.90;;;;;;5056167;28;20387;-64
2023/07/16 03:14:14;;;;;;;34.30;24.02;;;20.80;99.90;;;;;;5056207;28;20155;-64
2023/07/16 03:16:40;;;;;;;29.48;25.60;;;20.80;99.90;;;;;;5056241;28;20025;-64
2023/07/16 03:19:07;;;;;;;28.83;25.08;;;20.70;99.90;;;;;;5056269;28;20025;-64
2023/07/16 03:21:33;;;;;;;30.65;25.02;;;20.70;99.90;;;;;;5056109;28;20096;-65
2023/07/16 03:23:59;;;;;;;36.50;25.75;;;20.60;99.90;;;;;;5038199;28;20064;-64
2023/07/16 03:26:25;;;;;;;29.38;24.58;;;20.60;99.90;;;;;;5056065;28;20028;-64
2023/07/16 03:28:51;;;;;;;29.67;24.55;;;20.60;99.90;;;;;;5038078;28;20116;-65
2023/07/16 03:31:17;;;;;;;30.05;25.20;;;20.60;99.90;;;;;;5055932;28;20029;-64
2023/07/16 03:33:45;;;;;;;29.15;24.17;;;20.60;99.90;;;;;;5037991;28;20036;-64
2023/07/16 03:36:12;;;;;;;30.35;24.90;;;20.60;99.90;;;;;;5037945;28;20025;-64
2023/07/16 03:38:38;;;;;;;33.03;24.60;;;20.60;99.90;;;;;;5037965;28;20029;-64
2023/07/16 03:41:04;;;;;;;33.33;26.52;;;20.60;99.90;;;;;;5037714;28;20509;-64
2023/07/16 03:43:32;;;;;;;28.55;24.40;;;20.60;99.90;;;;;;5055677;28;20021;-64
2023/07/16 03:46:08;;;;;;;28.58;24.42;;;20.60;99.90;;;;;;5037900;28;20073;-64
2023/07/16 03:48:35;;;;;;;27.85;23.45;;;20.60;99.90;;;;;;5037493;28;20079;-64
2023/07/16 03:51:01;;;;;;;29.85;24.00;;;20.60;99.90;;;;;;5037660;28;20036;-64
2023/07/16 03:53:27;;;;;;;28.40;24.33;;;20.60;99.90;;;;;;5037478;28;20025;-64
2023/07/16 03:55:53;;;;;;;28.60;24.27;;;20.60;99.90;;;;;;5046879;28;20036;-64
2023/07/16 03:58:19;;;;;;;30.98;24.40;;;20.60;99.90;;;;;;5037374;28;20052;-64
2023/07/16 04:00:45;;;;;;;31.38;25.83;;;20.70;99.90;;;;;;5055424;28;20088;-64
2023/07/16 04:03:11;;;;;;;30.15;25.88;;;20.70;99.90;;;;;;5055380;28;20096;-64
2023/07/16 04:05:38;;;;;;;32.15;26.48;;;20.70;99.90;;;;;;5053877;28;20033;-64
2023/07/16 04:08:04;;;;;;;33.42;29.13;;;20.70;99.90;;;;;;5053900;28;20059;-64
2023/07/16 04:10:30;;;;;;;37.72;29.65;;;20.80;99.90;;;;;;5055002;28;20125;-64
2023/07/16 04:12:55;;;;;;;33.00;28.00;;;20.80;99.90;;;;;;5054977;28;20036;-65
2023/07/16 04:15:21;;;;;;;34.42;27.15;;;20.80;99.90;;;;;;5054982;28;20044;-64
2023/07/16 04:17:47;;;;;;;34.60;29.33;;;20.90;99.90;;;;;;5054066;28;20029;-65
2023/07/16 04:20:13;;;;;;;33.95;27.55;;;20.90;99.90;;;;;;5055046;28;20466;-64
2023/07/16 04:22:39;;;;;;;29.95;26.75;;;21.00;99.90;;;;;;5055018;28;20042;-64
2023/07/16 04:25:05;;;;;;;30.15;26.60;;;21.00;99.90;;;;;;5054798;28;20071;-64
2023/07/16 04:27:31;;;;;;;33.40;26.20;;;21.10;99.90;;;;;;5054867;28;20068;-64
2023/07/16 04:29:57;;;;;;;29.67;26.02;;;21.20;99.90;;;;;;5054889;28;20060;-64
2023/07/16 04:32:23;;;;;;;32.20;25.52;;;21.20;99.90;;;;;;5054754;28;20025;-64
2023/07/16 04:34:49;;;;;;;35.15;25.90;;;21.30;99.90;;;;;;5053472;28;20033;-64
2023/07/16 04:37:15;;;;;;;31.35;24.85;;;21.30;99.90;;;;;;5054682;28;20024;-64
2023/07/16 04:39:41;;;;;;;30.48;25.13;;;21.40;99.90;;;;;;5054743;28;20387;-64
2023/07/16 04:42:07;;;;;;;29.98;24.80;;;21.50;99.90;;;;;;5054630;28;20025;-65
2023/07/16 04:44:33;;;;;;;28.50;24.13;;;21.60;99.90;;;;;;5053301;28;20037;-64
2023/07/16 04:46:58;;;;;;;31.55;25.27;;;21.70;99.90;;;;;;5054588;28;20063;-64
2023/07/16 04:49:24;;;;;;;31.30;25.17;;;21.70;99.90;;;;;;5054553;28;20390;-64
2023/07/16 04:51:50;;;;;;;30.30;24.75;;;21.80;99.90;;;;;;5053333;28;20394;-64
2023/07/16 04:54:16;;;;;;;31.13;24.73;;;21.90;99.90;;;;;;5054335;28;20024;-64
2023/07/16 04:56:42;;;;;;;26.58;23.75;;;22.00;99.90;;;;;;5036990;28;20422;-65
2023/07/16 04:59:08;;;;;;;29.02;24.55;;;22.10;99.90;;;;;;5052127;28;20083;-64
2023/07/16 05:01:34;;;;;;;30.25;24.70;;;22.10;99.90;;;;;;5053966;28;20455;-64
2023/07/16 05:04:00;;;;;;;27.60;23.70;;;22.20;99.90;;;;;;5054324;28;20036;-64
2023/07/16 05:06:26;;;;;;;30.90;24.30;;;22.30;99.90;;;;;;5054287;28;20374;-65
2023/07/16 05:08:52;;;;;;;28.05;23.75;;;22.40;99.90;;;;;;5054131;28;20036;-64
2023/07/16 05:11:18;;;;;;;33.03;22.92;;;22.50;99.90;;;;;;5054225;28;20057;-64
2023/07/16 05:13:43;;;;;;;31.30;25.27;;;22.60;99.90;;;;;;5054067;28;20110;-64
2023/07/16 05:16:09;;;;;;;33.15;24.85;;;22.70;99.90;;;;;;5054168;28;20506;-64
2023/07/16 05:18:35;;;;;;;26.48;23.23;;;22.80;99.90;;;;;;5036304;28;20106;-64
2023/07/16 05:21:01;;;;;;;31.92;23.10;;;22.90;99.90;;;;;;5054054;28;20375;-65
2023/07/16 05:23:27;;;;;;;33.25;24.58;;;23.00;99.90;;;;;;5054134;28;20025;-64
2023/07/16 05:25:53;;;;;;;32.90;24.38;;;23.10;99.90;;;;;;5054099;28;20029;-64
2023/07/16 05:28:19;;;;;;;36.88;24.63;;;23.30;99.90;;;;;;5054623;28;20025;-64
2023/07/16 05:30:45;;;;;;;32.78;24.27;;;23.40;99.90;;;;;;5058169;28;20124;-64
2023/07/16 05:33:11;;;;;;;34.20;24.50;;;23.50;99.90;;;;;;5058289;28;20080;-64
2023/07/16 05:35:38;;;;;;;31.88;24.33;;;23.50;99.90;;;;;;5057981;28;20055;-64
2023/07/16 05:38:04;;;;;;;29.95;24.85;;;23.60;99.90;;;;;;5057997;28;20382;-64
2023/07/16 05:40:30;;;;;;;38.72;24.52;;;23.70;99.90;;;;;;5058036;28;20029;-64
2023/07/16 05:42:56;;;;;;;32.58;24.52;;;23.80;99.90;;;;;;5058167;28;20590;-64
2023/07/16 05:45:23;;;;;;;35.92;26.17;;;23.90;99.90;;;;;;5057660;28;20099;-64
2023/07/16 05:47:49;;;;;;;31.65;24.52;;;24.10;99.90;;;;;;5057868;28;20028;-64
2023/07/16 05:50:15;;;;;;;33.35;24.02;;;24.20;99.90;;;;;;5040278;28;20021;-65
2023/07/16 05:52:41;;;;;;;30.65;23.02;;;24.30;99.90;;;;;;5057827;28;20505;-65
2023/07/16 05:55:07;;;;;;;30.77;23.15;;;24.40;99.90;;;;;;5060504;28;20071;-64
2023/07/16 05:57:33;;;;;;;29.65;21.83;;;24.50;99.90;;;;;;5077580;28;20136;-64
2023/07/16 05:59:59;;;;;;;29.15;22.55;;;24.60;99.90;;;;;;5077598;28;20068;-65
2023/07/16 06:02:24;;;;;;;32.90;23.83;;;24.80;99.90;;;;;;5059518;28;20033;-64
2023/07/16 06:04:50;;;;;;;30.98;23.05;;;24.80;99.90;;;;;;5077474;28;20094;-64
2023/07/16 06:07:17;;;;;;;30.35;23.10;;;25.00;99.90;;;;;;5077433;28;20086;-64
2023/07/16 06:09:43;;;;;;;28.40;22.75;;;25.10;99.90;;;;;;5077351;28;20390;-65
2023/07/16 06:12:09;;;;;;;30.45;22.15;;;25.20;99.90;;;;;;5077649;28;20024;-65
2023/07/16 06:14:35;;;;;;;28.95;22.77;;;25.30;99.90;;;;;;5077392;28;20033;-65
2023/07/16 06:17:01;;;;;;;31.42;22.17;;;25.40;99.90;;;;;;5077269;28;20029;-65
2023/07/16 06:19:27;;;;;;;28.70;22.13;;;25.50;99.90;;;;;;5077156;28;20025;-65
2023/07/16 06:21:53;;;;;;;28.85;22.83;;;25.60;99.90;;;;;;5077094;28;20016;-65
2023/07/16 06:24:19;;;;;;;24.50;20.80;;;25.80;99.90;;;;;;5077211;28;20512;-64
2023/07/16 06:26:47;;;;;;;29.23;22.45;;;25.90;99.90;;;;;;5077202;28;20031;-64
2023/07/16 06:29:13;;;;;;;24.85;21.23;;;26.00;99.90;;;;;;5076983;28;20033;-65
2023/07/16 06:31:42;;;;;;;30.50;23.02;;;26.10;99.90;;;;;;5077073;28;20409;-65
2023/07/16 06:34:07;;;;;;;28.23;23.25;;;26.30;99.90;;;;;;5058870;28;20037;-65
2023/07/16 06:36:33;;;;;;;29.42;24.15;;;26.40;99.90;;;;;;5076749;28;20024;-65
2023/07/16 06:39:00;;;;;;;26.42;22.92;;;26.50;99.90;;;;;;5077034;28;20027;-65
2023/07/16 06:41:26;;;;;;;30.17;24.13;;;26.60;99.90;;;;;;5075836;28;20103;-65
2023/07/16 06:43:52;;;;;;;28.88;23.67;;;26.70;99.90;;;;;;5076798;28;20032;-65
2023/07/16 06:46:17;;;;;;;30.10;23.23;;;26.80;99.90;;;;;;5076563;28;20020;-65
2023/07/16 06:48:43;;;;;;;27.42;22.90;;;27.00;99.90;;;;;;5058546;28;20033;-65
2023/07/16 06:51:09;;;;;;;28.85;23.63;;;27.00;99.90;;;;;;5076728;28;20041;-65
2023/07/16 06:53:35;;;;;;;33.22;24.55;;;27.20;99.90;;;;;;5076538;28;20450;-65
2023/07/16 06:56:01;;;;;;;27.67;23.85;;;27.40;99.90;;;;;;5066010;28;20028;-64
2023/07/16 06:58:33;;;;;;;31.13;23.50;;;27.50;99.90;;;;;;5056479;28;20045;-65
2023/07/16 07:00:59;;;;;;;35.35;24.95;;;27.60;99.90;;;;;;5056462;28;20166;-65
2023/07/16 07:03:24;;;;;;;30.67;22.33;;;27.80;99.90;;;;;;5056605;28;20044;-65
2023/07/16 07:05:50;;;;;;;28.73;23.75;;;28.10;99.90;;;;;;5056300;28;20475;-65
2023/07/16 07:08:16;;;;;;;30.83;24.63;;;28.30;99.90;;;;;;5056320;28;20040;-65
2023/07/16 07:10:42;;;;;;;33.67;24.50;;;28.50;99.90;;;;;;5056016;28;20029;-65
2023/07/16 07:13:08;;;;;;;29.70;23.27;;;28.80;99.90;;;;;;5056222;28;20036;-65
2023/07/16 07:15:34;;;;;;;27.30;22.65;;;29.10;99.90;;;;;;5056041;28;20033;-65
2023/07/16 07:18:00;;;;;;;30.90;22.88;;;29.40;99.90;;;;;;5056272;28;20083;-65
2023/07/16 07:20:26;;;;;;;35.08;22.98;;;29.70;99.90;;;;;;5056087;28;20033;-65
2023/07/16 07:22:51;;;;;;;30.48;23.52;;;29.90;99.30;;;;;;5056115;28;20021;-65
2023/07/16 07:25:18;;;;;;;29.10;22.80;;;30.10;98.40;;;;;;5055957;28;20044;-65
2023/07/16 07:27:44;;;;;;;32.03;24.48;;;30.40;99.10;;;;;;5056085;28;20025;-65
2023/07/16 07:30:10;;;;;;;28.90;22.88;;;30.60;97.30;;;;;;5056179;28;20482;-65
2023/07/16 07:32:37;;;;;;;25.05;22.08;;;30.90;97.40;;;;;;5037958;28;20041;-65
2023/07/16 07:35:03;;;;;;;23.60;21.05;;;31.00;94.30;;;;;;5056084;28;20044;-65
2023/07/16 07:37:29;;;;;;;30.60;21.38;;;31.00;92.60;;;;;;5055954;28;20029;-65
2023/07/16 07:39:55;;;;;;;23.70;18.92;;;31.40;91.00;;;;;;5055761;28;20036;-65
2023/07/16 07:42:21;;;;;;;23.85;19.75;;;31.40;89.90;;;;;;5055748;28;20021;-65
2023/07/16 07:44:47;;;;;;;25.17;20.83;;;31.70;87.30;;;;;;5055634;28;20052;-65
2023/07/16 07:47:12;;;;;;;25.88;21.30;;;32.10;88.20;;;;;;5055640;28;20021;-65
2023/07/16 07:49:38;;;;;;;27.10;19.75;;;32.40;87.40;;;;;;5055734;28;20486;-65
2023/07/16 07:52:05;;;;;;;25.27;21.15;;;33.00;86.80;;;;;;5055261;28;20112;-65
2023/07/16 07:54:32;;;;;;;24.60;19.67;;;33.10;82.40;;;;;;5055397;28;20059;-65
2023/07/16 07:57:04;;;;;;;28.33;20.30;;;33.40;81.20;;;;;;5073756;28;20032;-65
2023/07/16 07:59:31;;;;;;;26.67;20.55;;;33.70;79.10;;;;;;5075371;28;20036;-65
2023/07/16 08:01:58;;;;;;;25.17;21.00;;;33.80;78.70;;;;;;5075373;28;20443;-65
2023/07/16 08:04:24;;;;;;;21.35;18.77;;;34.10;79.80;;;;;;5075336;28;20074;-65
2023/07/16 08:06:53;;;;;;;23.63;18.85;;;34.40;74.80;;;;;;5075228;28;20540;-65
2023/07/16 08:09:20;;;;;;;22.70;18.48;;;34.20;70.50;;;;;;5075249;28;20053;-65
2023/07/16 08:11:46;;;;;;;27.83;19.88;;;34.40;70.90;;;;;;5075004;28;20074;-65
2023/07/16 08:14:12;;;;;;;33.85;20.13;;;34.50;69.40;;;;;;5075006;28;20036;-65
2023/07/16 08:16:38;;;;;;;32.25;19.70;;;34.70;71.50;;;;;;5075017;28;20024;-65
2023/07/16 08:19:04;;;;;;;27.90;18.75;;;35.00;68.30;;;;;;5075408;28;20029;-65
2023/07/16 08:21:29;;;;;;;25.20;19.42;;;35.10;65.70;;;;;;5074923;28;20028;-65
2023/07/16 08:23:55;;;;;;;24.65;19.40;;;35.30;64.00;;;;;;5074992;28;20116;-65
2023/07/16 08:26:21;;;;;;;24.20;19.20;;;35.10;63.00;;;;;;5074928;28;20454;-65
2023/07/16 08:28:47;;;;;;;28.33;20.58;;;35.10;62.80;;;;;;5074714;28;20029;-65
2023/07/16 08:31:13;;;;;;;25.58;19.77;;;35.20;62.50;;;;;;5056931;28;20044;-65
2023/07/16 08:33:39;;;;;;;26.50;18.70;;;35.10;61.80;;;;;;5074607;28;20044;-65
2023/07/16 08:36:06;;;;;;;31.70;20.17;;;35.60;59.50;;;;;;5074599;28;20033;-65
2023/07/16 08:38:31;;;;;;;26.35;19.60;;;35.90;60.00;;;;;;5074578;28;20036;-65
2023/07/16 08:40:59;;;;;;;30.15;19.88;;;36.40;61.10;;;;;;5074665;28;20031;-63
2023/07/16 08:43:25;;;;;;;30.77;19.90;;;36.60;59.00;;;;;;5074652;28;20028;-63
2023/07/16 08:45:51;;;;;;;27.08;18.38;;;36.80;55.90;;;;;;5074559;28;20492;-63
2023/07/16 08:48:20;;;;;;;21.27;17.67;;;37.00;55.60;;;;;;5074649;28;20484;-63
2023/07/16 08:50:49;;;;;;;18.83;16.45;;;37.00;55.10;;;;;;5074518;28;20031;-63
2023/07/16 08:53:16;;;;;;;22.67;17.70;;;37.00;50.00;;;;;;5074505;28;20060;-63
2023/07/16 08:55:45;;;;;;;20.45;18.10;;;36.90;52.30;;;;;;5066519;28;20466;-63
2023/07/16 08:58:14;;;;;;;37.25;17.42;;;36.90;57.50;;;;;;5054483;28;20094;-63
2023/07/16 09:00:48;;;;;;;20.08;17.58;;;37.20;52.30;;;;;;5054459;28;20070;-63
2023/07/16 09:03:17;;;;;;;22.52;18.35;;;37.00;54.20;;;;;;5053773;28;20351;-62
2023/07/16 09:05:44;;;;;;;21.77;17.93;;;37.10;49.30;;;;;;5054441;28;20028;-63
2023/07/16 09:08:11;;;;;;;22.92;18.95;;;37.30;54.50;;;;;;5054310;28;20111;-63
2023/07/16 09:10:37;;;;;;;22.67;18.35;;;37.10;51.30;;;;;;5054092;28;20466;-63
2023/07/16 09:13:03;;;;;;;24.15;19.05;;;37.40;51.20;;;;;;5054229;28;20033;-63
2023/07/16 09:15:30;;;;;;;20.20;17.55;;;37.40;48.90;;;;;;5054357;28;20116;-63
2023/07/16 09:17:56;;;;;;;23.08;16.65;;;37.20;49.00;;;;;;5054098;28;20458;-63
2023/07/16 09:20:23;;;;;;;22.77;17.40;;;37.40;47.00;;;;;;5054103;28;20490;-63
2023/07/16 09:22:50;;;;;;;19.50;17.50;;;37.60;48.30;;;;;;5036175;28;20444;-63
2023/07/16 09:25:16;;;;;;;20.88;17.13;;;37.60;47.60;;;;;;5054167;28;20053;-63
2023/07/16 09:27:42;;;;;;;19.75;16.77;;;37.50;44.80;;;;;;5054197;28;20037;-63
2023/07/16 09:30:15;;;;;;;19.83;17.20;;;37.40;47.80;;;;;;5054089;28;20036;-63
2023/07/16 09:32:41;;;;;;;23.20;16.33;;;37.90;51.00;;;;;;5054197;28;20026;-63
2023/07/16 09:35:10;;;;;;;18.42;15.55;;;38.10;49.00;;;;;;5053970;28;20033;-63
2023/07/16 09:37:39;;;;;;;17.33;15.48;;;38.50;49.30;;;;;;5053972;28;20033;-63
2023/07/16 09:40:09;;;;;;;19.05;14.63;;;39.00;47.70;;;;;;5054057;28;20048;-63
2023/07/16 09:42:42;;;;;;;22.33;15.85;;;39.50;46.20;;;;;;5053936;28;20029;-63
2023/07/16 09:45:16;;;;;;;18.00;16.20;;;39.50;46.20;;;;;;5053993;28;20040;-63
2023/07/16 09:47:42;;;;;;;17.00;15.15;;;38.70;42.20;;;;;;5054067;28;20084;-63
2023/07/16 09:50:11;;;;;;;19.08;15.57;;;38.80;42.70;;;;;;5053885;28;20455;-63
2023/07/16 09:52:39;;;;;;;23.80;15.70;;;38.90;43.30;;;;;;5053949;28;20606;-63
2023/07/16 09:55:08;;;;;;;24.77;16.67;;;39.30;43.70;;;;;;5038778;28;20037;-63
2023/07/16 09:57:43;;;;;;;20.20;15.30;;;39.30;41.90;;;;;;5073678;28;20371;-63
2023/07/16 10:00:14;;;;;;;19.83;15.07;;;39.40;46.00;;;;;;5073922;28;20025;-63
2023/07/16 10:02:41;;;;;;;20.30;15.05;;;39.60;43.90;;;;;;5073985;28;20067;-63
2023/07/16 10:05:13;;;;;;;15.80;13.55;;;39.70;42.40;;;;;;5073804;28;20031;-63
2023/07/16 10:07:40;;;;;;;23.42;16.52;;;39.80;41.50;;;;;;5073814;28;20025;-63
2023/07/16 10:10:11;;;;;;;19.80;15.25;;;40.10;39.80;;;;;;5073553;28;20032;-63
2023/07/16 10:12:37;;;;;;;21.85;14.77;;;40.10;42.30;;;;;;5073779;28;20056;-63
2023/07/16 10:15:05;;;;;;;19.50;13.63;;;40.40;38.80;;;;;;5075290;28;20354;-63
2023/07/16 10:17:32;;;;;;;22.77;16.42;;;40.10;35.30;;;;;;5077283;28;20383;-63
2023/07/16 10:19:59;;;;;;;24.50;14.20;;;40.30;37.80;;;;;;5077215;28;20425;-63
2023/07/16 10:22:37;;;;;;;19.25;15.32;;;40.10;33.60;;;;;;5077236;28;20077;-63
2023/07/16 10:25:17;;;;;;;16.83;13.70;;;40.10;34.90;;;;;;5077138;28;20032;-63
2023/07/16 10:27:48;;;;;;;19.00;13.52;;;39.20;36.60;;;;;;5077283;28;20032;-63
2023/07/16 10:30:15;;;;;;;20.83;14.00;;;39.60;36.60;;;;;;5077452;28;20230;-63
2023/07/16 10:32:41;;;;;;;22.58;13.25;;;39.40;38.10;;;;;;5076993;28;20036;-63
2023/07/16 10:35:11;;;;;;;14.50;11.93;;;40.00;33.80;;;;;;5076940;28;20124;-63
2023/07/16 10:37:37;;;;;;;15.55;11.13;;;40.20;28.50;;;;;;5076893;28;20065;-63
2023/07/16 10:40:04;;;;;;;10.85;8.20;;;39.70;28.10;;;;;;5076807;28;20027;-63
2023/07/16 10:42:31;;;;;;;13.75;10.88;;;39.80;27.20;;;;;;5076920;28;20029;-63
2023/07/16 10:45:02;;;;;;;13.05;9.07;;;40.10;26.70;;;;;;5076814;28;20032;-63
2023/07/16 10:47:31;;;;;;;14.93;9.32;;;40.40;28.70;;;;;;5076782;28;20078;-63
2023/07/16 10:49:58;;;;;;;13.77;10.27;;;40.40;29.10;;;;;;5076790;28;20078;-63
2023/07/16 10:52:24;;;;;;;17.10;10.73;;;40.20;31.00;;;;;;5076583;28;20421;-63
2023/07/16 10:55:00;;;;;;;10.98;8.88;;;40.50;33.20;;;;;;5075907;28;20029;-63
2023/07/16 10:57:27;;;;;;;11.60;9.98;;;40.70;26.60;;;;;;5056500;28;20036;-63
2023/07/16 10:59:55;;;;;;;10.75;7.38;;;40.80;28.20;;;;;;5056393;28;20060;-63
2023/07/16 11:02:24;;;;;;;11.30;7.45;;;41.20;27.30;;;;;;5056514;28;20053;-63
2023/07/16 11:04:53;;;;;;;7.78;6.97;;;41.50;26.70;;;;;;5056499;28;20025;-63
2023/07/16 11:07:19;;;;;;;10.68;7.60;;;41.30;30.80;;;;;;5056524;28;20040;-63
2023/07/16 11:09:55;;;;;;;11.52;6.72;;;40.70;30.30;;;;;;5056329;28;20029;-63
2023/07/16 11:12:23;;;;;;;8.98;6.68;;;39.80;25.50;;;;;;5056645;28;20117;-63
2023/07/16 11:14:53;;;;;;;7.40;5.65;;;40.50;26.00;;;;;;5056065;28;20485;-63
2023/07/16 11:17:20;;;;;;;9.75;6.43;;;40.90;28.20;;;;;;5056310;28;20374;-63
2023/07/16 11:19:51;;;;;;;8.32;5.57;;;41.00;30.70;;;;;;5056056;28;20045;-63
2023/07/16 11:22:17;;;;;;;8.32;5.63;;;40.80;25.30;;;;;;5056135;28;20056;-63
2023/07/16 11:24:50;;;;;;;6.15;5.25;;;40.70;29.40;;;;;;5056173;28;20025;-63
2023/07/16 11:27:18;;;;;;;9.38;5.35;;;40.90;26.70;;;;;;5055578;28;20037;-63
2023/07/16 11:29:50;;;;;;;5.97;5.05;;;41.20;26.20;;;;;;5055639;28;20025;-63
2023/07/16 11:32:43;;;;;;;6.75;5.35;;;41.30;25.60;;;;;;5055952;28;20391;-63
2023/07/16 11:35:15;;;;;;;12.73;5.35;;;41.30;25.10;;;;;;5055811;28;20033;-63
2023/07/16 11:37:41;;;;;;;11.60;5.80;;;40.70;26.60;;;;;;5055885;28;20090;-63
2023/07/16 11:40:10;;;;;;;7.05;6.18;;;40.90;27.90;;;;;;5055794;28;20387;-63
2023/07/16 11:42:38;;;;;;;7.70;6.60;;;41.10;28.00;;;;;;5055717;28;20079;-63
2023/07/16 11:45:05;;;;;;;8.63;6.15;;;41.40;25.80;;;;;;5055692;28;20492;-63
2023/07/16 11:47:31;;;;;;;9.75;7.22;;;41.50;25.40;;;;;;5055569;28;20083;-63
2023/07/16 11:49:58;;;;;;;9.60;6.57;;;40.90;27.00;;;;;;5055470;28;20017;-63
2023/07/16 11:52:28;;;;;;;8.02;6.47;;;40.80;29.00;;;;;;5055464;28;20025;-63
2023/07/16 11:55:01;;;;;;;13.15;6.50;;;41.20;29.40;;;;;;5056286;28;20021;-63
2023/07/16 11:57:28;;;;;;;12.15;7.75;;;40.60;32.10;;;;;;5075327;28;20043;-63
2023/07/16 11:59:53;;;;;;;10.27;6.65;;;40.30;25.70;;;;;;5075394;28;20024;-63
2023/07/16 12:02:21;;;;;;;9.18;6.68;;;40.50;29.90;;;;;;5075272;28;20382;-63
2023/07/16 12:04:47;;;;;;;9.52;6.97;;;40.60;27.70;;;;;;5075215;28;20060;-63
2023/07/16 12:07:13;;;;;;;8.23;7.30;;;40.30;29.10;;;;;;5075540;28;20067;-63
2023/07/16 12:09:39;;;;;;;7.35;6.63;;;40.80;30.30;;;;;;5075049;28;20036;-63
2023/07/16 12:12:05;;;;;;;9.68;6.55;;;40.80;29.50;;;;;;5075032;28;20055;-63
2023/07/16 12:14:32;;;;;;;10.50;5.30;;;41.00;29.40;;;;;;5075092;28;20127;-63
2023/07/16 12:16:58;;;;;;;6.03;5.35;;;40.50;27.80;;;;;;5075043;28;20025;-63
2023/07/16 12:19:24;;;;;;;8.82;4.30;;;40.90;30.00;;;;;;5074897;28;20082;-63
2023/07/16 12:21:50;;;;;;;6.68;4.30;;;41.30;27.60;;;;;;5057184;28;20428;-63
2023/07/16 12:24:17;;;;;;;4.63;3.88;;;40.80;25.70;;;;;;5074916;28;20561;-63
2023/07/16 12:26:43;;;;;;;6.93;4.28;;;40.80;25.30;;;;;;5074883;28;20028;-63
2023/07/16 12:29:09;;;;;;;9.35;3.67;;;41.00;26.40;;;;;;5074867;28;20028;-63